sensor_id;sensor_type;location;lat;lon;timestamp;temperature;humidity
13346;DHT22;6742;48.036;15.780;2023-12-07T00:01:10;1.60;99.90
13346;DHT22;6742;48.036;15.780;2023-12-07T00:03:36;1.60;99.90
13346;DHT22;6742;48.036;15.780;2023-12-07T00:06:03;1.60;99.90
13346;DHT22;6742;48.036;15.780;2023-12-07T00:08:30;1.60;99.90
13346;DHT22;6742;48.036;15.780;2023-12-07T00:10:57;1.60;99.90
13346;DHT22;6742;48.036;15.780;2023-12-07T00:13:25;1.60;99.90
13346;DHT22;6742;48.036;15.780;2023-12-07T00:15:52;1.50;99.90
13346;DHT22;6742;48.036;15.780;2023-12-07T00:18:19;1.50;99.90
13346;DHT22;6742;48.036;15.780;2023-12-07T00:20:46;1.50;99.90
13346;DHT22;6742;48.036;15.780;2023-12-07T00:23:13;1.50;99.90
13346;DHT22;6742;48.036;15.780;2023-12-07T00:25:40;1.60;99.90
13346;DHT22;6742;48.036;15.780;2023-12-07T00:28:06;1.60;99.90
13346;DHT22;6742;48.036;15.780;2023-12-07T00:30:35;1.60;99.90
13346;DHT22;6742;48.036;15.780;2023-12-07T00:33:02;1.60;99.90
13346;DHT22;6742;48.036;15.780;2023-12-07T00:35:29;1.50;99.90
13346;DHT22;6742;48.036;15.780;2023-12-07T00:37:55;1.50;99.90
13346;DHT22;6742;48.036;15.780;2023-12-07T00:40:23;1.50;99.90
13346;DHT22;6742;48.036;15.780;2023-12-07T00:42:49;1.60;99.90
13346;DHT22;6742;48.036;15.780;2023-12-07T00:45:16;1.50;99.90
13346;DHT22;6742;48.036;15.780;2023-12-07T00:47:45;1.50;99.90
13346;DHT22;6742;48.036;15.780;2023-12-07T00:50:12;1.60;99.90
13346;DHT22;6742;48.036;15.780;2023-12-07T00:52:40;1.50;99.90
13346;DHT22;6742;48.036;15.780;2023-12-07T00:55:08;1.60;99.90
13346;DHT22;6742;48.036;15.780;2023-12-07T00:57:34;1.50;99.90
13346;DHT22;6742;48.036;15.780;2023-12-07T01:00:02;1.60;99.90
13346;DHT22;6742;48.036;15.780;2023-12-07T01:02:29;1.60;99.90
13346;DHT22;6742;48.036;15.780;2023-12-07T01:04:57;1.60;99.90
13346;DHT22;6742;48.036;15.780;2023-12-07T01:07:24;1.60;99.90
13346;DHT22;6742;48.036;15.780;2023-12-07T01:09:51;1.60;99.90
13346;DHT22;6742;48.036;15.780;2023-12-07T01:12:18;1.50;99.90
13346;DHT22;6742;48.036;15.780;2023-12-07T01:14:44;1.60;99.90
13346;DHT22;6742;48.036;15.780;2023-12-07T01:17:11;1.50;99.90
13346;DHT22;6742;48.036;15.780;2023-12-07T01:19:38;1.60;99.90
13346;DHT22;6742;48.036;15.780;2023-12-07T01:22:06;1.60;99.90
13346;DHT22;6742;48.036;15.780;2023-12-07T01:24:33;1.60;99.90
13346;DHT22;6742;48.036;15.780;2023-12-07T01:27:00;1.60;99.90
13346;DHT22;6742;48.036;15.780;2023-12-07T01:29:27;1.50;99.90
13346;DHT22;6742;48.036;15.780;2023-12-07T01:31:54;1.50;99.90
13346;DHT22;6742;48.036;15.780;2023-12-07T01:34:21;1.50;99.90
13346;DHT22;6742;48.036;15.780;2023-12-07T01:36:48;1.60;99.90
13346;DHT22;6742;48.036;15.780;2023-12-07T01:39:16;1.60;99.90
13346;DHT22;6742;48.036;15.780;2023-12-07T01:41:43;1.60;99.90
13346;DHT22;6742;48.036;15.780;2023-12-07T01:44:10;1.60;99.90
13346;DHT22;6742;48.036;15.780;2023-12-07T01:46:37;1.60;99.90
13346;DHT22;6742;48.036;15.780;2023-12-07T01:49:04;1.50;99.90
13346;DHT22;6742;48.036;15.780;2023-12-07T01:51:31;1.60;99.90
13346;DHT22;6742;48.036;15.780;2023-12-07T01:53:58;1.50;99.90
13346;DHT22;6742;48.036;15.780;2023-12-07T01:56:27;1.60;99.90
13346;DHT22;6742;48.036;15.780;2023-12-07T01:58:54;1.60;99.90
13346;DHT22;6742;48.036;15.780;2023-12-07T02:01:21;1.60;99.90
13346;DHT22;6742;48.036;15.780;2023-12-07T02:03:48;1.60;99.90
13346;DHT22;6742;48.036;15.780;2023-12-07T02:06:15;1.50;99.90
13346;DHT22;6742;48.036;15.780;2023-12-07T02:08:43;1.50;99.90
13346;DHT22;6742;48.036;15.780;2023-12-07T02:11:10;1.50;99.90
13346;DHT22;6742;48.036;15.780;2023-12-07T02:13:39;1.60;99.90
13346;DHT22;6742;48.036;15.780;2023-12-07T02:16:11;1.60;99.90
13346;DHT22;6742;48.036;15.780;2023-12-07T02:18:44;1.60;99.90
13346;DHT22;6742;48.036;15.780;2023-12-07T02:21:18;1.60;99.90
13346;DHT22;6742;48.036;15.780;2023-12-07T02:23:51;1.60;99.90
13346;DHT22;6742;48.036;15.780;2023-12-07T02:26:20;1.50;99.90
13346;DHT22;6742;48.036;15.780;2023-12-07T02:28:48;1.50;99.90
13346;DHT22;6742;48.036;15.780;2023-12-07T02:31:14;1.50;99.90
13346;DHT22;6742;48.036;15.780;2023-12-07T02:33:41;1.60;99.90
13346;DHT22;6742;48.036;15.780;2023-12-07T02:36:09;1.60;99.90
13346;DHT22;6742;48.036;15.780;2023-12-07T02:38:37;1.60;99.90
13346;DHT22;6742;48.036;15.780;2023-12-07T02:41:04;1.50;99.90
13346;DHT22;6742;48.036;15.780;2023-12-07T02:43:32;1.50;99.90
13346;DHT22;6742;48.036;15.780;2023-12-07T02:46:01;1.50;99.90
13346;DHT22;6742;48.036;15.780;2023-12-07T02:48:28;1.50;99.90
13346;DHT22;6742;48.036;15.780;2023-12-07T02:50:56;1.50;99.90
13346;DHT22;6742;48.036;15.780;2023-12-07T02:53:22;1.50;99.90
13346;DHT22;6742;48.036;15.780;2023-12-07T02:55:49;1.50;99.90
13346;DHT22;6742;48.036;15.780;2023-12-07T02:58:16;1.60;99.90
13346;DHT22;6742;48.036;15.780;2023-12-07T03:00:43;1.50;99.90
13346;DHT22;6742;48.036;15.780;2023-12-07T03:03:11;1.50;99.90
13346;DHT22;6742;48.036;15.780;2023-12-07T03:05:38;1.50;99.90
13346;DHT22;6742;48.036;15.780;2023-12-07T03:08:05;1.50;99.90
13346;DHT22;6742;48.036;15.780;2023-12-07T03:10:32;1.50;99.90
13346;DHT22;6742;48.036;15.780;2023-12-07T03:12:59;1.60;99.90
13346;DHT22;6742;48.036;15.780;2023-12-07T03:15:26;1.50;99.90
13346;DHT22;6742;48.036;15.780;2023-12-07T03:17:53;1.60;99.90
13346;DHT22;6742;48.036;15.780;2023-12-07T03:20:21;1.60;99.90
13346;DHT22;6742;48.036;15.780;2023-12-07T03:22:48;1.60;99.90
13346;DHT22;6742;48.036;15.780;2023-12-07T03:25:15;1.50;99.90
13346;DHT22;6742;48.036;15.780;2023-12-07T03:27:42;1.50;99.90
13346;DHT22;6742;48.036;15.780;2023-12-07T03:30:10;1.60;99.90
13346;DHT22;6742;48.036;15.780;2023-12-07T03:32:37;1.50;99.90
13346;DHT22;6742;48.036;15.780;2023-12-07T03:35:05;1.60;99.90
13346;DHT22;6742;48.036;15.780;2023-12-07T03:37:33;1.60;99.90
13346;DHT22;6742;48.036;15.780;2023-12-07T03:40:00;1.60;99.90
13346;DHT22;6742;48.036;15.780;2023-12-07T03:42:29;1.60;99.90
13346;DHT22;6742;48.036;15.780;2023-12-07T03:44:56;1.60;99.90
13346;DHT22;6742;48.036;15.780;2023-12-07T03:47:23;1.60;99.90
13346;DHT22;6742;48.036;15.780;2023-12-07T03:49:50;1.60;99.90
13346;DHT22;6742;48.036;15.780;2023-12-07T03:52:17;1.60;99.90
13346;DHT22;6742;48.036;15.780;2023-12-07T03:54:45;1.60;99.90
13346;DHT22;6742;48.036;15.780;2023-12-07T03:57:12;1.60;99.90
13346;DHT22;6742;48.036;15.780;2023-12-07T03:59:39;1.60;99.90
13346;DHT22;6742;48.036;15.780;2023-12-07T04:02:06;1.60;99.90
13346;DHT22;6742;48.036;15.780;2023-12-07T04:04:33;1.60;99.90
13346;DHT22;6742;48.036;15.780;2023-12-07T04:07:00;1.60;99.90
13346;DHT22;6742;48.036;15.780;2023-12-07T04:09:29;1.60;99.90
13346;DHT22;6742;48.036;15.780;2023-12-07T04:11:57;1.60;99.90
13346;DHT22;6742;48.036;15.780;2023-12-07T04:14:24;1.60;99.90
13346;DHT22;6742;48.036;15.780;2023-12-07T04:16:51;1.60;99.90
13346;DHT22;6742;48.036;15.780;2023-12-07T04:19:18;1.60;99.90
13346;DHT22;6742;48.036;15.780;2023-12-07T04:21:45;1.60;99.90
13346;DHT22;6742;48.036;15.780;2023-12-07T04:24:12;1.60;99.90
13346;DHT22;6742;48.036;15.780;2023-12-07T04:26:38;1.60;99.90
13346;DHT22;6742;48.036;15.780;2023-12-07T04:29:07;1.50;99.90
13346;DHT22;6742;48.036;15.780;2023-12-07T04:31:34;1.60;99.90
13346;DHT22;6742;48.036;15.780;2023-12-07T04:34:01;1.60;99.90
13346;DHT22;6742;48.036;15.780;2023-12-07T04:36:28;1.60;99.90
13346;DHT22;6742;48.036;15.780;2023-12-07T04:38:55;1.60;99.90
13346;DHT22;6742;48.036;15.780;2023-12-07T04:41:22;1.60;99.90
13346;DHT22;6742;48.036;15.780;2023-12-07T04:43:48;1.60;99.90
13346;DHT22;6742;48.036;15.780;2023-12-07T04:46:17;1.60;99.90
13346;DHT22;6742;48.036;15.780;2023-12-07T04:48:44;1.50;99.90
13346;DHT22;6742;48.036;15.780;2023-12-07T04:51:11;1.60;99.90
13346;DHT22;6742;48.036;15.780;2023-12-07T04:53:38;1.50;99.90
13346;DHT22;6742;48.036;15.780;2023-12-07T04:56:05;1.50;99.90
13346;DHT22;6742;48.036;15.780;2023-12-07T04:58:33;1.50;99.90
13346;DHT22;6742;48.036;15.780;2023-12-07T05:01:00;1.50;99.90
13346;DHT22;6742;48.036;15.780;2023-12-07T05:03:28;1.50;99.90
13346;DHT22;6742;48.036;15.780;2023-12-07T05:05:55;1.50;99.90
13346;DHT22;6742;48.036;15.780;2023-12-07T05:08:22;1.50;99.90
13346;DHT22;6742;48.036;15.780;2023-12-07T05:10:49;1.50;99.90
13346;DHT22;6742;48.036;15.780;2023-12-07T05:13:17;1.50;99.90
13346;DHT22;6742;48.036;15.780;2023-12-07T05:15:44;1.50;99.90
13346;DHT22;6742;48.036;15.780;2023-12-07T05:18:12;1.50;99.90
13346;DHT22;6742;48.036;15.780;2023-12-07T05:20:40;1.50;99.90
13346;DHT22;6742;48.036;15.780;2023-12-07T05:23:08;1.50;99.90
13346;DHT22;6742;48.036;15.780;2023-12-07T05:25:35;1.50;99.90
13346;DHT22;6742;48.036;15.780;2023-12-07T05:28:02;1.50;99.90
13346;DHT22;6742;48.036;15.780;2023-12-07T05:30:30;1.50;99.90
13346;DHT22;6742;48.036;15.780;2023-12-07T05:32:57;1.50;99.90
13346;DHT22;6742;48.036;15.780;2023-12-07T05:35:24;1.50;99.90
13346;DHT22;6742;48.036;15.780;2023-12-07T05:37:52;1.50;99.90
13346;DHT22;6742;48.036;15.780;2023-12-07T05:40:19;1.50;99.90
13346;DHT22;6742;48.036;15.780;2023-12-07T05:42:49;1.50;99.90
13346;DHT22;6742;48.036;15.780;2023-12-07T05:45:16;1.50;99.90
13346;DHT22;6742;48.036;15.780;2023-12-07T05:47:43;1.50;99.90
13346;DHT22;6742;48.036;15.780;2023-12-07T05:50:10;1.50;99.90
13346;DHT22;6742;48.036;15.780;2023-12-07T05:52:36;1.50;99.90
13346;DHT22;6742;48.036;15.780;2023-12-07T05:55:06;1.50;99.90
13346;DHT22;6742;48.036;15.780;2023-12-07T05:57:33;1.50;99.90
13346;DHT22;6742;48.036;15.780;2023-12-07T06:00:00;1.50;99.90
13346;DHT22;6742;48.036;15.780;2023-12-07T06:02:27;1.50;99.90
13346;DHT22;6742;48.036;15.780;2023-12-07T06:04:54;1.50;99.90
13346;DHT22;6742;48.036;15.780;2023-12-07T06:07:20;1.60;99.90
13346;DHT22;6742;48.036;15.780;2023-12-07T06:09:48;1.50;99.90
13346;DHT22;6742;48.036;15.780;2023-12-07T06:12:16;1.50;99.90
13346;DHT22;6742;48.036;15.780;2023-12-07T06:14:43;1.50;99.90
13346;DHT22;6742;48.036;15.780;2023-12-07T06:17:10;1.50;99.90
13346;DHT22;6742;48.036;15.780;2023-12-07T06:19:37;1.50;99.90
13346;DHT22;6742;48.036;15.780;2023-12-07T06:22:04;1.50;99.90
13346;DHT22;6742;48.036;15.780;2023-12-07T06:24:31;1.50;99.90
13346;DHT22;6742;48.036;15.780;2023-12-07T06:26:58;1.50;99.90
13346;DHT22;6742;48.036;15.780;2023-12-07T06:29:28;1.50;99.90
13346;DHT22;6742;48.036;15.780;2023-12-07T06:31:55;1.50;99.90
13346;DHT22;6742;48.036;15.780;2023-12-07T06:34:22;1.50;99.90
13346;DHT22;6742;48.036;15.780;2023-12-07T06:36:49;1.50;99.90
13346;DHT22;6742;48.036;15.780;2023-12-07T06:39:16;1.50;99.90
13346;DHT22;6742;48.036;15.780;2023-12-07T06:41:44;1.50;99.90
13346;DHT22;6742;48.036;15.780;2023-12-07T06:44:11;1.50;99.90
13346;DHT22;6742;48.036;15.780;2023-12-07T06:46:39;1.50;99.90
13346;DHT22;6742;48.036;15.780;2023-12-07T06:49:06;1.50;99.90
13346;DHT22;6742;48.036;15.780;2023-12-07T06:51:33;1.50;99.90
13346;DHT22;6742;48.036;15.780;2023-12-07T06:54:00;1.50;99.90
13346;DHT22;6742;48.036;15.780;2023-12-07T06:56:27;1.50;99.90
13346;DHT22;6742;48.036;15.780;2023-12-07T06:58:53;1.50;99.90
13346;DHT22;6742;48.036;15.780;2023-12-07T07:01:20;1.50;99.90
13346;DHT22;6742;48.036;15.780;2023-12-07T07:03:49;1.40;99.90
13346;DHT22;6742;48.036;15.780;2023-12-07T07:06:15;1.50;99.90
13346;DHT22;6742;48.036;15.780;2023-12-07T07:08:42;1.50;99.90
13346;DHT22;6742;48.036;15.780;2023-12-07T07:11:12;1.50;99.90
13346;DHT22;6742;48.036;15.780;2023-12-07T07:13:39;1.50;99.90
13346;DHT22;6742;48.036;15.780;2023-12-07T07:16:07;1.50;99.90
13346;DHT22;6742;48.036;15.780;2023-12-07T07:18:34;1.50;99.90
13346;DHT22;6742;48.036;15.780;2023-12-07T07:21:03;1.50;99.90
13346;DHT22;6742;48.036;15.780;2023-12-07T07:23:33;1.50;99.90
13346;DHT22;6742;48.036;15.780;2023-12-07T07:26:00;1.50;99.90
13346;DHT22;6742;48.036;15.780;2023-12-07T07:28:27;1.50;99.90
13346;DHT22;6742;48.036;15.780;2023-12-07T07:30:54;1.50;99.90
13346;DHT22;6742;48.036;15.780;2023-12-07T07:33:21;1.50;99.90
13346;DHT22;6742;48.036;15.780;2023-12-07T07:35:48;1.50;99.90
13346;DHT22;6742;48.036;15.780;2023-12-07T07:38:16;1.50;99.90
13346;DHT22;6742;48.036;15.780;2023-12-07T07:40:43;1.50;99.90
13346;DHT22;6742;48.036;15.780;2023-12-07T07:43:10;1.50;99.90
13346;DHT22;6742;48.036;15.780;2023-12-07T07:45:37;1.60;99.90
13346;DHT22;6742;48.036;15.780;2023-12-07T07:48:04;1.60;99.90
13346;DHT22;6742;48.036;15.780;2023-12-07T07:50:32;1.60;99.90
13346;DHT22;6742;48.036;15.780;2023-12-07T07:53:01;1.50;99.90
13346;DHT22;6742;48.036;15.780;2023-12-07T07:55:30;1.60;99.90
13346;DHT22;6742;48.036;15.780;2023-12-07T07:57:57;1.60;99.90
13346;DHT22;6742;48.036;15.780;2023-12-07T08:00:24;1.50;99.90
13346;DHT22;6742;48.036;15.780;2023-12-07T08:02:53;1.60;99.90
13346;DHT22;6742;48.036;15.780;2023-12-07T08:05:21;1.60;99.90
13346;DHT22;6742;48.036;15.780;2023-12-07T08:07:47;1.60;99.90
13346;DHT22;6742;48.036;15.780;2023-12-07T08:10:14;1.50;99.90
13346;DHT22;6742;48.036;15.780;2023-12-07T08:12:43;1.60;99.90
13346;DHT22;6742;48.036;15.780;2023-12-07T08:15:10;1.60;99.90
13346;DHT22;6742;48.036;15.780;2023-12-07T08:17:39;1.60;99.90
13346;DHT22;6742;48.036;15.780;2023-12-07T08:20:08;1.60;99.90
13346;DHT22;6742;48.036;15.780;2023-12-07T08:22:36;1.60;99.90
13346;DHT22;6742;48.036;15.780;2023-12-07T08:25:03;1.50;99.90
13346;DHT22;6742;48.036;15.780;2023-12-07T08:27:31;1.60;99.90
13346;DHT22;6742;48.036;15.780;2023-12-07T08:30:00;1.60;99.90
13346;DHT22;6742;48.036;15.780;2023-12-07T08:32:28;1.60;99.90
13346;DHT22;6742;48.036;15.780;2023-12-07T08:34:58;1.60;99.90
13346;DHT22;6742;48.036;15.780;2023-12-07T08:37:25;1.60;99.90
13346;DHT22;6742;48.036;15.780;2023-12-07T08:39:51;1.60;99.90
13346;DHT22;6742;48.036;15.780;2023-12-07T08:42:18;1.60;99.90
13346;DHT22;6742;48.036;15.780;2023-12-07T08:44:45;1.60;99.90
13346;DHT22;6742;48.036;15.780;2023-12-07T08:47:13;1.60;99.90
13346;DHT22;6742;48.036;15.780;2023-12-07T08:49:40;1.70;99.90
13346;DHT22;6742;48.036;15.780;2023-12-07T08:52:07;1.60;99.90
13346;DHT22;6742;48.036;15.780;2023-12-07T08:54:34;1.70;99.90
13346;DHT22;6742;48.036;15.780;2023-12-07T08:57:02;1.70;99.90
13346;DHT22;6742;48.036;15.780;2023-12-07T08:59:29;1.70;99.90
13346;DHT22;6742;48.036;15.780;2023-12-07T09:01:56;1.70;99.90
13346;DHT22;6742;48.036;15.780;2023-12-07T09:04:25;1.70;99.90
13346;DHT22;6742;48.036;15.780;2023-12-07T09:06:52;1.70;99.90
13346;DHT22;6742;48.036;15.780;2023-12-07T09:09:19;1.70;99.90
13346;DHT22;6742;48.036;15.780;2023-12-07T09:11:46;1.70;99.90
13346;DHT22;6742;48.036;15.780;2023-12-07T09:14:13;1.70;99.90
13346;DHT22;6742;48.036;15.780;2023-12-07T09:16:43;1.70;99.90
13346;DHT22;6742;48.036;15.780;2023-12-07T09:19:11;1.70;99.90
13346;DHT22;6742;48.036;15.780;2023-12-07T09:21:41;1.80;99.90
13346;DHT22;6742;48.036;15.780;2023-12-07T09:24:07;1.70;99.90
13346;DHT22;6742;48.036;15.780;2023-12-07T09:26:35;1.70;99.90
13346;DHT22;6742;48.036;15.780;2023-12-07T09:29:02;1.70;99.90
13346;DHT22;6742;48.036;15.780;2023-12-07T09:31:29;1.80;99.90
13346;DHT22;6742;48.036;15.780;2023-12-07T09:33:56;1.70;99.90
13346;DHT22;6742;48.036;15.780;2023-12-07T09:36:23;1.70;99.90
13346;DHT22;6742;48.036;15.780;2023-12-07T09:38:53;1.70;99.90
13346;DHT22;6742;48.036;15.780;2023-12-07T09:41:21;1.70;99.90
13346;DHT22;6742;48.036;15.780;2023-12-07T09:43:48;1.70;99.90
13346;DHT22;6742;48.036;15.780;2023-12-07T09:46:16;1.70;99.90
13346;DHT22;6742;48.036;15.780;2023-12-07T09:48:43;1.80;99.90
13346;DHT22;6742;48.036;15.780;2023-12-07T09:51:11;1.70;99.90
13346;DHT22;6742;48.036;15.780;2023-12-07T09:53:39;1.70;99.90
13346;DHT22;6742;48.036;15.780;2023-12-07T09:56:10;1.80;99.90
13346;DHT22;6742;48.036;15.780;2023-12-07T09:58:39;1.80;99.90
13346;DHT22;6742;48.036;15.780;2023-12-07T10:01:07;1.80;99.90
13346;DHT22;6742;48.036;15.780;2023-12-07T10:03:34;1.80;99.90
13346;DHT22;6742;48.036;15.780;2023-12-07T10:06:01;1.80;99.90
13346;DHT22;6742;48.036;15.780;2023-12-07T10:08:28;1.70;99.90
13346;DHT22;6742;48.036;15.780;2023-12-07T10:11:03;1.70;99.90
13346;DHT22;6742;48.036;15.780;2023-12-07T10:13:32;1.70;99.90
13346;DHT22;6742;48.036;15.780;2023-12-07T10:16:07;1.80;99.90
13346;DHT22;6742;48.036;15.780;2023-12-07T10:18:35;1.80;99.90
13346;DHT22;6742;48.036;15.780;2023-12-07T10:21:02;1.80;99.90
13346;DHT22;6742;48.036;15.780;2023-12-07T10:23:29;1.80;99.90
13346;DHT22;6742;48.036;15.780;2023-12-07T10:25:58;1.80;99.90
13346;DHT22;6742;48.036;15.780;2023-12-07T10:28:26;1.80;99.90
13346;DHT22;6742;48.036;15.780;2023-12-07T10:30:54;1.80;99.90
13346;DHT22;6742;48.036;15.780;2023-12-07T10:33:21;1.80;99.90
13346;DHT22;6742;48.036;15.780;2023-12-07T10:35:48;1.80;99.90
13346;DHT22;6742;48.036;15.780;2023-12-07T10:38:15;1.80;99.90
13346;DHT22;6742;48.036;15.780;2023-12-07T10:40:43;1.70;99.90
13346;DHT22;6742;48.036;15.780;2023-12-07T10:43:12;1.80;99.90
13346;DHT22;6742;48.036;15.780;2023-12-07T10:45:41;1.80;99.90
13346;DHT22;6742;48.036;15.780;2023-12-07T10:48:11;1.90;99.90
13346;DHT22;6742;48.036;15.780;2023-12-07T10:50:41;1.90;99.90
13346;DHT22;6742;48.036;15.780;2023-12-07T10:53:11;1.90;99.90
13346;DHT22;6742;48.036;15.780;2023-12-07T10:55:45;2.00;99.90
13346;DHT22;6742;48.036;15.780;2023-12-07T10:58:14;1.90;99.90
13346;DHT22;6742;48.036;15.780;2023-12-07T11:00:43;2.00;99.90
13346;DHT22;6742;48.036;15.780;2023-12-07T11:03:15;2.00;99.90
13346;DHT22;6742;48.036;15.780;2023-12-07T11:05:44;2.10;99.90
13346;DHT22;6742;48.036;15.780;2023-12-07T11:08:19;2.10;99.90
13346;DHT22;6742;48.036;15.780;2023-12-07T11:10:53;2.10;99.90
13346;DHT22;6742;48.036;15.780;2023-12-07T11:13:24;2.10;99.90
13346;DHT22;6742;48.036;15.780;2023-12-07T11:15:53;2.20;99.90
13346;DHT22;6742;48.036;15.780;2023-12-07T11:18:21;2.20;99.90
13346;DHT22;6742;48.036;15.780;2023-12-07T11:20:48;2.30;99.90
13346;DHT22;6742;48.036;15.780;2023-12-07T11:23:17;2.30;99.90
13346;DHT22;6742;48.036;15.780;2023-12-07T11:25:44;2.40;99.90
13346;DHT22;6742;48.036;15.780;2023-12-07T11:28:12;2.30;99.90
13346;DHT22;6742;48.036;15.780;2023-12-07T11:30:42;2.30;99.90
13346;DHT22;6742;48.036;15.780;2023-12-07T11:33:09;2.30;99.90
13346;DHT22;6742;48.036;15.780;2023-12-07T11:36:06;2.30;99.90
13346;DHT22;6742;48.036;15.780;2023-12-07T11:38:34;2.30;99.90
13346;DHT22;6742;48.036;15.780;2023-12-07T11:41:02;2.40;99.90
13346;DHT22;6742;48.036;15.780;2023-12-07T11:43:41;2.30;99.90
13346;DHT22;6742;48.036;15.780;2023-12-07T11:46:12;2.40;99.90
13346;DHT22;6742;48.036;15.780;2023-12-07T11:48:46;2.30;99.90
13346;DHT22;6742;48.036;15.780;2023-12-07T11:51:16;2.40;99.90
13346;DHT22;6742;48.036;15.780;2023-12-07T11:53:42;2.40;99.90
13346;DHT22;6742;48.036;15.780;2023-12-07T11:56:10;2.30;99.90
13346;DHT22;6742;48.036;15.780;2023-12-07T11:58:39;2.30;99.90
13346;DHT22;6742;48.036;15.780;2023-12-07T12:01:06;2.40;99.90
13346;DHT22;6742;48.036;15.780;2023-12-07T12:03:33;2.40;99.90
13346;DHT22;6742;48.036;15.780;2023-12-07T12:06:05;2.30;99.90
13346;DHT22;6742;48.036;15.780;2023-12-07T12:08:35;2.20;99.90
13346;DHT22;6742;48.036;15.780;2023-12-07T12:11:02;2.20;99.90
13346;DHT22;6742;48.036;15.780;2023-12-07T12:13:29;2.30;99.90
13346;DHT22;6742;48.036;15.780;2023-12-07T12:15:56;2.20;99.90
13346;DHT22;6742;48.036;15.780;2023-12-07T12:18:23;2.20;99.90
13346;DHT22;6742;48.036;15.780;2023-12-07T12:20:51;2.10;99.90
13346;DHT22;6742;48.036;15.780;2023-12-07T12:23:19;2.10;99.90
13346;DHT22;6742;48.036;15.780;2023-12-07T12:25:48;2.20;99.90
13346;DHT22;6742;48.036;15.780;2023-12-07T12:28:16;2.20;99.90
13346;DHT22;6742;48.036;15.780;2023-12-07T12:30:44;2.20;99.90
13346;DHT22;6742;48.036;15.780;2023-12-07T12:33:13;2.20;99.90
13346;DHT22;6742;48.036;15.780;2023-12-07T12:35:40;2.20;99.90
13346;DHT22;6742;48.036;15.780;2023-12-07T12:38:09;2.20;99.90
13346;DHT22;6742;48.036;15.780;2023-12-07T12:40:36;2.10;99.90
13346;DHT22;6742;48.036;15.780;2023-12-07T12:43:04;2.10;99.90
13346;DHT22;6742;48.036;15.780;2023-12-07T12:45:33;2.10;99.90
13346;DHT22;6742;48.036;15.780;2023-12-07T12:48:00;2.10;99.90
13346;DHT22;6742;48.036;15.780;2023-12-07T12:50:36;2.10;99.90
13346;DHT22;6742;48.036;15.780;2023-12-07T12:53:04;2.10;99.90
13346;DHT22;6742;48.036;15.780;2023-12-07T12:55:33;2.10;99.90
13346;DHT22;6742;48.036;15.780;2023-12-07T12:58:00;2.00;99.90
13346;DHT22;6742;48.036;15.780;2023-12-07T13:00:31;2.00;99.90
13346;DHT22;6742;48.036;15.780;2023-12-07T13:02:59;2.00;99.90
13346;DHT22;6742;48.036;15.780;2023-12-07T13:05:26;2.00;99.90
13346;DHT22;6742;48.036;15.780;2023-12-07T13:07:53;2.00;99.90
13346;DHT22;6742;48.036;15.780;2023-12-07T13:10:21;1.90;99.90
13346;DHT22;6742;48.036;15.780;2023-12-07T13:12:48;2.00;99.90
13346;DHT22;6742;48.036;15.780;2023-12-07T13:15:15;2.00;99.90
13346;DHT22;6742;48.036;15.780;2023-12-07T13:17:43;2.10;99.90
13346;DHT22;6742;48.036;15.780;2023-12-07T13:20:11;2.00;99.90
13346;DHT22;6742;48.036;15.780;2023-12-07T13:22:39;2.10;99.90
13346;DHT22;6742;48.036;15.780;2023-12-07T13:25:07;2.10;99.90
13346;DHT22;6742;48.036;15.780;2023-12-07T13:27:34;2.00;99.90
13346;DHT22;6742;48.036;15.780;2023-12-07T13:30:01;2.00;99.90
13346;DHT22;6742;48.036;15.780;2023-12-07T13:32:31;2.00;99.90
13346;DHT22;6742;48.036;15.780;2023-12-07T13:34:59;2.00;99.90
13346;DHT22;6742;48.036;15.780;2023-12-07T13:37:27;1.90;99.90
13346;DHT22;6742;48.036;15.780;2023-12-07T13:39:54;1.90;99.90
13346;DHT22;6742;48.036;15.780;2023-12-07T13:42:24;1.90;99.90
13346;DHT22;6742;48.036;15.780;2023-12-07T13:44:53;1.90;99.90
13346;DHT22;6742;48.036;15.780;2023-12-07T13:47:22;1.90;99.90
13346;DHT22;6742;48.036;15.780;2023-12-07T13:49:51;1.90;99.90
13346;DHT22;6742;48.036;15.780;2023-12-07T13:52:20;1.90;99.90
13346;DHT22;6742;48.036;15.780;2023-12-07T13:54:47;1.90;99.90
13346;DHT22;6742;48.036;15.780;2023-12-07T13:57:14;1.90;99.90
13346;DHT22;6742;48.036;15.780;2023-12-07T13:59:41;1.90;99.90
13346;DHT22;6742;48.036;15.780;2023-12-07T14:02:08;1.90;99.90
13346;DHT22;6742;48.036;15.780;2023-12-07T14:04:35;1.90;99.90
13346;DHT22;6742;48.036;15.780;2023-12-07T14:07:10;1.90;99.90
13346;DHT22;6742;48.036;15.780;2023-12-07T14:09:40;1.80;99.90
13346;DHT22;6742;48.036;15.780;2023-12-07T14:12:08;1.90;99.90
13346;DHT22;6742;48.036;15.780;2023-12-07T14:14:36;1.90;99.90
13346;DHT22;6742;48.036;15.780;2023-12-07T14:17:03;1.90;99.90
13346;DHT22;6742;48.036;15.780;2023-12-07T14:19:31;1.90;99.90
13346;DHT22;6742;48.036;15.780;2023-12-07T14:21:58;1.90;99.90
13346;DHT22;6742;48.036;15.780;2023-12-07T14:24:25;1.80;99.90
13346;DHT22;6742;48.036;15.780;2023-12-07T14:26:56;1.90;99.90
13346;DHT22;6742;48.036;15.780;2023-12-07T14:29:23;1.80;99.90
13346;DHT22;6742;48.036;15.780;2023-12-07T14:31:54;1.90;99.90
13346;DHT22;6742;48.036;15.780;2023-12-07T14:34:22;1.80;99.90
13346;DHT22;6742;48.036;15.780;2023-12-07T14:36:49;1.80;99.90
13346;DHT22;6742;48.036;15.780;2023-12-07T14:39:16;1.80;99.90
13346;DHT22;6742;48.036;15.780;2023-12-07T14:41:44;1.80;99.90
13346;DHT22;6742;48.036;15.780;2023-12-07T14:44:14;1.80;99.90
13346;DHT22;6742;48.036;15.780;2023-12-07T14:46:46;1.80;99.90
13346;DHT22;6742;48.036;15.780;2023-12-07T14:49:16;1.80;99.90
13346;DHT22;6742;48.036;15.780;2023-12-07T14:51:43;1.80;99.90
13346;DHT22;6742;48.036;15.780;2023-12-07T14:54:10;1.80;99.90
13346;DHT22;6742;48.036;15.780;2023-12-07T14:56:38;1.80;99.90
13346;DHT22;6742;48.036;15.780;2023-12-07T14:59:05;1.80;99.90
13346;DHT22;6742;48.036;15.780;2023-12-07T15:01:34;1.80;99.90
13346;DHT22;6742;48.036;15.780;2023-12-07T15:04:01;1.80;99.90
13346;DHT22;6742;48.036;15.780;2023-12-07T15:06:28;1.80;99.90
13346;DHT22;6742;48.036;15.780;2023-12-07T15:08:55;1.80;99.90
13346;DHT22;6742;48.036;15.780;2023-12-07T15:11:22;1.80;99.90
13346;DHT22;6742;48.036;15.780;2023-12-07T15:13:49;1.80;99.90
13346;DHT22;6742;48.036;15.780;2023-12-07T15:16:16;1.80;99.90
13346;DHT22;6742;48.036;15.780;2023-12-07T15:18:44;1.70;99.90
13346;DHT22;6742;48.036;15.780;2023-12-07T15:21:12;1.70;99.90
13346;DHT22;6742;48.036;15.780;2023-12-07T15:23:39;1.70;99.90
13346;DHT22;6742;48.036;15.780;2023-12-07T15:26:07;1.70;99.90
13346;DHT22;6742;48.036;15.780;2023-12-07T15:28:34;1.70;99.90
13346;DHT22;6742;48.036;15.780;2023-12-07T15:31:01;1.70;99.90
13346;DHT22;6742;48.036;15.780;2023-12-07T15:33:29;1.70;99.90
13346;DHT22;6742;48.036;15.780;2023-12-07T15:35:57;1.70;99.90
13346;DHT22;6742;48.036;15.780;2023-12-07T15:38:24;1.70;99.90
13346;DHT22;6742;48.036;15.780;2023-12-07T15:40:51;1.70;99.90
13346;DHT22;6742;48.036;15.780;2023-12-07T15:43:21;1.70;99.90
13346;DHT22;6742;48.036;15.780;2023-12-07T15:45:48;1.70;99.90
13346;DHT22;6742;48.036;15.780;2023-12-07T15:48:15;1.70;99.90